sensor_id;sensor_type;location;lat;lon;timestamp;temperature;humidity
33837;DHT22;20140;49.356;8.812;2023-07-20T00:01:03;20.40;99.90
33837;DHT22;20140;49.356;8.812;2023-07-20T00:03:29;20.40;99.90
33837;DHT22;20140;49.356;8.812;2023-07-20T00:05:54;20.30;99.90
33837;DHT22;20140;49.356;8.812;2023-07-20T00:08:20;20.30;99.90
33837;DHT22;20140;49.356;8.812;2023-07-20T00:10:45;20.30;99.90
33837;DHT22;20140;49.356;8.812;2023-07-20T00:13:11;20.30;99.90
33837;DHT22;20140;49.356;8.812;2023-07-20T00:15:37;20.30;99.90
33837;DHT22;20140;49.356;8.812;2023-07-20T00:18:03;20.30;99.90
33837;DHT22;20140;49.356;8.812;2023-07-20T00:20:29;20.30;99.90
33837;DHT22;20140;49.356;8.812;2023-07-20T00:22:54;20.30;99.90
33837;DHT22;20140;49.356;8.812;2023-07-20T00:25:20;20.30;99.90
33837;DHT22;20140;49.356;8.812;2023-07-20T00:27:46;20.30;99.90
33837;DHT22;20140;49.356;8.812;2023-07-20T00:30:12;20.20;99.90
33837;DHT22;20140;49.356;8.812;2023-07-20T00:32:37;20.20;99.90
33837;DHT22;20140;49.356;8.812;2023-07-20T00:35:03;20.20;99.90
33837;DHT22;20140;49.356;8.812;2023-07-20T00:37:29;20.10;99.90
33837;DHT22;20140;49.356;8.812;2023-07-20T00:39:54;20.10;99.90
33837;DHT22;20140;49.356;8.812;2023-07-20T00:42:20;20.10;99.90
33837;DHT22;20140;49.356;8.812;2023-07-20T00:44:45;20.10;99.90
33837;DHT22;20140;49.356;8.812;2023-07-20T00:47:11;20.10;99.90
33837;DHT22;20140;49.356;8.812;2023-07-20T00:49:37;20.00;99.90
33837;DHT22;20140;49.356;8.812;2023-07-20T00:52:03;20.00;99.90
33837;DHT22;20140;49.356;8.812;2023-07-20T00:54:31;20.00;99.90
33837;DHT22;20140;49.356;8.812;2023-07-20T00:56:58;19.90;99.90
33837;DHT22;20140;49.356;8.812;2023-07-20T00:59:24;20.00;99.90
33837;DHT22;20140;49.356;8.812;2023-07-20T01:01:49;19.90;99.90
33837;DHT22;20140;49.356;8.812;2023-07-20T01:04:15;19.90;99.90
33837;DHT22;20140;49.356;8.812;2023-07-20T01:07:03;19.90;99.90
33837;DHT22;20140;49.356;8.812;2023-07-20T01:10:49;19.80;99.90
33837;DHT22;20140;49.356;8.812;2023-07-20T01:12:47;19.80;99.90
33837;DHT22;20140;49.356;8.812;2023-07-20T01:15:13;19.80;99.90
33837;DHT22;20140;49.356;8.812;2023-07-20T01:17:39;19.70;99.90
33837;DHT22;20140;49.356;8.812;2023-07-20T01:20:08;19.80;99.90
33837;DHT22;20140;49.356;8.812;2023-07-20T01:25:34;19.80;99.90
33837;DHT22;20140;49.356;8.812;2023-07-20T01:28:37;19.70;99.90
33837;DHT22;20140;49.356;8.812;2023-07-20T01:31:21;19.70;99.90
33837;DHT22;20140;49.356;8.812;2023-07-20T01:33:49;19.60;99.90
33837;DHT22;20140;49.356;8.812;2023-07-20T01:36:18;19.50;99.90
33837;DHT22;20140;49.356;8.812;2023-07-20T01:38:44;19.40;99.90
33837;DHT22;20140;49.356;8.812;2023-07-20T01:41:11;19.40;99.90
33837;DHT22;20140;49.356;8.812;2023-07-20T01:43:36;19.30;99.90
33837;DHT22;20140;49.356;8.812;2023-07-20T01:46:02;19.30;99.90
33837;DHT22;20140;49.356;8.812;2023-07-20T01:48:27;19.20;99.90
33837;DHT22;20140;49.356;8.812;2023-07-20T01:50:53;19.10;99.90
33837;DHT22;20140;49.356;8.812;2023-07-20T01:53:20;19.10;99.90
33837;DHT22;20140;49.356;8.812;2023-07-20T01:55:45;19.00;99.90
33837;DHT22;20140;49.356;8.812;2023-07-20T01:58:11;18.90;99.90
33837;DHT22;20140;49.356;8.812;2023-07-20T02:00:39;18.80;99.90
33837;DHT22;20140;49.356;8.812;2023-07-20T02:03:05;18.70;99.90
33837;DHT22;20140;49.356;8.812;2023-07-20T02:05:30;18.70;99.90
33837;DHT22;20140;49.356;8.812;2023-07-20T02:07:56;18.60;99.90
33837;DHT22;20140;49.356;8.812;2023-07-20T02:10:22;18.50;99.90
33837;DHT22;20140;49.356;8.812;2023-07-20T02:12:47;18.40;99.90
33837;DHT22;20140;49.356;8.812;2023-07-20T02:15:14;18.40;99.90
33837;DHT22;20140;49.356;8.812;2023-07-20T02:17:41;18.30;99.90
33837;DHT22;20140;49.356;8.812;2023-07-20T02:20:08;18.20;99.90
33837;DHT22;20140;49.356;8.812;2023-07-20T02:22:36;18.20;99.90
33837;DHT22;20140;49.356;8.812;2023-07-20T02:25:01;18.10;99.90
33837;DHT22;20140;49.356;8.812;2023-07-20T02:27:27;18.10;99.90
33837;DHT22;20140;49.356;8.812;2023-07-20T02:29:52;18.00;99.90
33837;DHT22;20140;49.356;8.812;2023-07-20T02:32:18;17.90;99.90
33837;DHT22;20140;49.356;8.812;2023-07-20T02:34:43;17.80;99.90
33837;DHT22;20140;49.356;8.812;2023-07-20T02:37:09;17.80;99.90
33837;DHT22;20140;49.356;8.812;2023-07-20T02:39:34;17.80;99.90
33837;DHT22;20140;49.356;8.812;2023-07-20T02:42:00;17.60;99.90
33837;DHT22;20140;49.356;8.812;2023-07-20T02:44:25;17.40;99.90
33837;DHT22;20140;49.356;8.812;2023-07-20T02:46:51;17.40;99.90
33837;DHT22;20140;49.356;8.812;2023-07-20T02:49:16;17.30;99.90
33837;DHT22;20140;49.356;8.812;2023-07-20T02:51:42;17.30;99.90
33837;DHT22;20140;49.356;8.812;2023-07-20T02:54:07;17.10;99.90
33837;DHT22;20140;49.356;8.812;2023-07-20T02:56:33;17.00;99.90
33837;DHT22;20140;49.356;8.812;2023-07-20T02:59:00;16.80;99.90
33837;DHT22;20140;49.356;8.812;2023-07-20T03:01:26;16.70;99.90
33837;DHT22;20140;49.356;8.812;2023-07-20T03:03:54;16.60;99.90
33837;DHT22;20140;49.356;8.812;2023-07-20T03:06:20;16.40;99.90
33837;DHT22;20140;49.356;8.812;2023-07-20T03:08:45;16.40;99.90
33837;DHT22;20140;49.356;8.812;2023-07-20T03:11:14;16.30;99.90
33837;DHT22;20140;49.356;8.812;2023-07-20T03:13:43;16.10;99.90
33837;DHT22;20140;49.356;8.812;2023-07-20T03:16:09;16.00;99.90
33837;DHT22;20140;49.356;8.812;2023-07-20T03:18:39;15.80;99.90
33837;DHT22;20140;49.356;8.812;2023-07-20T03:21:06;15.70;99.90
33837;DHT22;20140;49.356;8.812;2023-07-20T03:23:32;15.70;99.90
33837;DHT22;20140;49.356;8.812;2023-07-20T03:25:58;15.80;99.90
33837;DHT22;20140;49.356;8.812;2023-07-20T03:28:23;15.80;99.90
33837;DHT22;20140;49.356;8.812;2023-07-20T03:30:58;15.80;99.90
33837;DHT22;20140;49.356;8.812;2023-07-20T03:33:28;15.80;99.90
33837;DHT22;20140;49.356;8.812;2023-07-20T03:35:55;15.70;99.90
33837;DHT22;20140;49.356;8.812;2023-07-20T03:38:21;15.70;99.90
33837;DHT22;20140;49.356;8.812;2023-07-20T03:40:56;15.70;99.90
33837;DHT22;20140;49.356;8.812;2023-07-20T03:43:23;15.70;99.90
33837;DHT22;20140;49.356;8.812;2023-07-20T03:45:49;15.70;99.90
33837;DHT22;20140;49.356;8.812;2023-07-20T03:48:19;15.70;99.90
33837;DHT22;20140;49.356;8.812;2023-07-20T03:50:46;15.70;99.90
33837;DHT22;20140;49.356;8.812;2023-07-20T03:53:13;15.60;99.90
33837;DHT22;20140;49.356;8.812;2023-07-20T03:55:39;15.60;99.90
33837;DHT22;20140;49.356;8.812;2023-07-20T03:58:08;15.40;99.90
33837;DHT22;20140;49.356;8.812;2023-07-20T04:00:34;15.40;99.90
33837;DHT22;20140;49.356;8.812;2023-07-20T04:02:59;15.40;99.90
33837;DHT22;20140;49.356;8.812;2023-07-20T04:05:25;15.50;99.90
33837;DHT22;20140;49.356;8.812;2023-07-20T04:07:51;15.50;99.90
33837;DHT22;20140;49.356;8.812;2023-07-20T04:10:17;15.60;99.90
33837;DHT22;20140;49.356;8.812;2023-07-20T04:12:43;15.70;99.90
33837;DHT22;20140;49.356;8.812;2023-07-20T04:15:09;15.80;99.90
33837;DHT22;20140;49.356;8.812;2023-07-20T04:17:35;15.70;99.90
33837;DHT22;20140;49.356;8.812;2023-07-20T04:20:00;15.70;99.90
33837;DHT22;20140;49.356;8.812;2023-07-20T04:22:26;15.70;99.90
33837;DHT22;20140;49.356;8.812;2023-07-20T04:24:52;15.70;99.90
33837;DHT22;20140;49.356;8.812;2023-07-20T04:27:17;15.70;99.90
33837;DHT22;20140;49.356;8.812;2023-07-20T04:29:43;15.70;99.90
33837;DHT22;20140;49.356;8.812;2023-07-20T04:32:08;15.70;99.90
33837;DHT22;20140;49.356;8.812;2023-07-20T04:34:34;15.70;99.90
33837;DHT22;20140;49.356;8.812;2023-07-20T04:37:03;15.70;99.90
33837;DHT22;20140;49.356;8.812;2023-07-20T04:39:28;15.70;99.90
33837;DHT22;20140;49.356;8.812;2023-07-20T04:41:54;15.70;99.90
33837;DHT22;20140;49.356;8.812;2023-07-20T04:44:19;15.70;99.90
33837;DHT22;20140;49.356;8.812;2023-07-20T04:46:45;15.80;99.90
33837;DHT22;20140;49.356;8.812;2023-07-20T04:49:11;15.90;99.90
33837;DHT22;20140;49.356;8.812;2023-07-20T04:51:38;16.00;99.90
33837;DHT22;20140;49.356;8.812;2023-07-20T04:54:04;15.90;99.90
33837;DHT22;20140;49.356;8.812;2023-07-20T04:56:29;16.10;99.90
33837;DHT22;20140;49.356;8.812;2023-07-20T04:58:55;16.10;99.90
33837;DHT22;20140;49.356;8.812;2023-07-20T05:01:21;16.40;99.90
33837;DHT22;20140;49.356;8.812;2023-07-20T05:03:47;16.40;99.90
33837;DHT22;20140;49.356;8.812;2023-07-20T05:06:12;16.50;99.90
33837;DHT22;20140;49.356;8.812;2023-07-20T05:08:38;16.70;99.90
33837;DHT22;20140;49.356;8.812;2023-07-20T05:11:04;16.80;99.90
33837;DHT22;20140;49.356;8.812;2023-07-20T05:13:30;16.90;99.90
33837;DHT22;20140;49.356;8.812;2023-07-20T05:15:55;17.00;99.90
33837;DHT22;20140;49.356;8.812;2023-07-20T05:18:21;17.10;99.90
33837;DHT22;20140;49.356;8.812;2023-07-20T05:20:47;17.20;99.90
33837;DHT22;20140;49.356;8.812;2023-07-20T05:23:13;17.30;99.90
33837;DHT22;20140;49.356;8.812;2023-07-20T05:25:39;17.50;99.90
33837;DHT22;20140;49.356;8.812;2023-07-20T05:28:04;17.80;99.90
33837;DHT22;20140;49.356;8.812;2023-07-20T05:30:30;17.90;99.90
33837;DHT22;20140;49.356;8.812;2023-07-20T05:32:55;18.00;99.90
33837;DHT22;20140;49.356;8.812;2023-07-20T05:35:21;18.00;99.90
33837;DHT22;20140;49.356;8.812;2023-07-20T05:37:47;18.20;99.90
33837;DHT22;20140;49.356;8.812;2023-07-20T05:40:14;18.20;99.90
33837;DHT22;20140;49.356;8.812;2023-07-20T05:42:47;18.20;99.90
33837;DHT22;20140;49.356;8.812;2023-07-20T05:45:17;18.30;99.90
33837;DHT22;20140;49.356;8.812;2023-07-20T05:47:43;18.20;99.90
33837;DHT22;20140;49.356;8.812;2023-07-20T05:50:09;18.20;99.90
33837;DHT22;20140;49.356;8.812;2023-07-20T05:52:35;18.30;99.90
33837;DHT22;20140;49.356;8.812;2023-07-20T05:55:00;18.30;99.90
33837;DHT22;20140;49.356;8.812;2023-07-20T05:57:26;18.20;99.90
33837;DHT22;20140;49.356;8.812;2023-07-20T05:59:51;18.20;99.90
33837;DHT22;20140;49.356;8.812;2023-07-20T06:02:17;18.10;99.90
33837;DHT22;20140;49.356;8.812;2023-07-20T06:04:42;18.00;99.90
33837;DHT22;20140;49.356;8.812;2023-07-20T06:07:08;18.10;99.90
33837;DHT22;20140;49.356;8.812;2023-07-20T06:09:34;18.20;99.90
33837;DHT22;20140;49.356;8.812;2023-07-20T06:11:59;18.30;99.90
33837;DHT22;20140;49.356;8.812;2023-07-20T06:14:25;18.50;99.90
33837;DHT22;20140;49.356;8.812;2023-07-20T06:16:51;18.70;99.90
33837;DHT22;20140;49.356;8.812;2023-07-20T06:19:16;18.70;99.90
33837;DHT22;20140;49.356;8.812;2023-07-20T06:21:42;18.60;99.90
33837;DHT22;20140;49.356;8.812;2023-07-20T06:24:08;18.80;99.90
33837;DHT22;20140;49.356;8.812;2023-07-20T06:26:33;18.90;99.90
33837;DHT22;20140;49.356;8.812;2023-07-20T06:29:07;19.00;99.90
33837;DHT22;20140;49.356;8.812;2023-07-20T06:31:35;19.10;99.90
33837;DHT22;20140;49.356;8.812;2023-07-20T06:34:01;19.30;99.90
33837;DHT22;20140;49.356;8.812;2023-07-20T06:36:26;19.40;99.90
33837;DHT22;20140;49.356;8.812;2023-07-20T06:38:52;19.40;99.90
33837;DHT22;20140;49.356;8.812;2023-07-20T06:41:18;19.50;99.90
33837;DHT22;20140;49.356;8.812;2023-07-20T06:43:44;19.50;99.90
33837;DHT22;20140;49.356;8.812;2023-07-20T06:46:09;19.50;99.90
33837;DHT22;20140;49.356;8.812;2023-07-20T06:48:35;19.50;99.90
33837;DHT22;20140;49.356;8.812;2023-07-20T06:51:00;19.50;99.90
33837;DHT22;20140;49.356;8.812;2023-07-20T06:53:26;19.40;99.90
33837;DHT22;20140;49.356;8.812;2023-07-20T06:55:51;19.50;99.90
33837;DHT22;20140;49.356;8.812;2023-07-20T06:58:17;19.30;99.90
33837;DHT22;20140;49.356;8.812;2023-07-20T07:00:43;19.40;99.90
33837;DHT22;20140;49.356;8.812;2023-07-20T07:03:10;19.40;99.90
33837;DHT22;20140;49.356;8.812;2023-07-20T07:05:38;19.50;99.90
33837;DHT22;20140;49.356;8.812;2023-07-20T07:08:04;19.50;99.90
33837;DHT22;20140;49.356;8.812;2023-07-20T07:10:30;19.40;99.90
33837;DHT22;20140;49.356;8.812;2023-07-20T07:12:56;19.40;99.90
33837;DHT22;20140;49.356;8.812;2023-07-20T07:15:21;19.40;99.90
33837;DHT22;20140;49.356;8.812;2023-07-20T07:17:47;19.40;99.90
33837;DHT22;20140;49.356;8.812;2023-07-20T07:20:12;19.50;99.90
33837;DHT22;20140;49.356;8.812;2023-07-20T07:22:38;19.60;99.90
33837;DHT22;20140;49.356;8.812;2023-07-20T07:25:04;19.70;99.90
33837;DHT22;20140;49.356;8.812;2023-07-20T07:27:29;19.60;99.90
33837;DHT22;20140;49.356;8.812;2023-07-20T07:29:55;19.70;99.90
33837;DHT22;20140;49.356;8.812;2023-07-20T07:32:20;19.90;99.90
33837;DHT22;20140;49.356;8.812;2023-07-20T07:34:46;19.90;99.90
33837;DHT22;20140;49.356;8.812;2023-07-20T07:37:13;20.00;99.90
33837;DHT22;20140;49.356;8.812;2023-07-20T07:39:38;20.10;99.90
33837;DHT22;20140;49.356;8.812;2023-07-20T07:42:05;19.90;99.90
33837;DHT22;20140;49.356;8.812;2023-07-20T07:44:30;19.90;99.90
33837;DHT22;20140;49.356;8.812;2023-07-20T07:46:56;19.90;99.90
33837;DHT22;20140;49.356;8.812;2023-07-20T07:49:22;20.00;99.90
33837;DHT22;20140;49.356;8.812;2023-07-20T07:51:47;20.00;99.90
33837;DHT22;20140;49.356;8.812;2023-07-20T07:54:13;20.00;99.90
33837;DHT22;20140;49.356;8.812;2023-07-20T07:56:39;20.00;99.90
33837;DHT22;20140;49.356;8.812;2023-07-20T07:59:06;20.10;99.90
33837;DHT22;20140;49.356;8.812;2023-07-20T08:01:31;20.20;99.90
33837;DHT22;20140;49.356;8.812;2023-07-20T08:03:57;20.40;99.90
33837;DHT22;20140;49.356;8.812;2023-07-20T08:06:22;20.30;99.90
33837;DHT22;20140;49.356;8.812;2023-07-20T08:08:49;20.40;99.90
33837;DHT22;20140;49.356;8.812;2023-07-20T08:11:14;20.60;99.90
33837;DHT22;20140;49.356;8.812;2023-07-20T08:13:40;20.70;99.90
33837;DHT22;20140;49.356;8.812;2023-07-20T08:16:05;20.80;99.90
33837;DHT22;20140;49.356;8.812;2023-07-20T08:18:31;20.80;99.90
33837;DHT22;20140;49.356;8.812;2023-07-20T08:20:56;21.00;99.90
33837;DHT22;20140;49.356;8.812;2023-07-20T08:23:22;21.00;99.90
33837;DHT22;20140;49.356;8.812;2023-07-20T08:25:48;20.80;99.90
33837;DHT22;20140;49.356;8.812;2023-07-20T08:28:15;20.80;99.90
33837;DHT22;20140;49.356;8.812;2023-07-20T08:30:48;21.00;99.90
33837;DHT22;20140;49.356;8.812;2023-07-20T08:33:15;21.20;99.90
33837;DHT22;20140;49.356;8.812;2023-07-20T08:35:41;21.00;99.90
33837;DHT22;20140;49.356;8.812;2023-07-20T08:38:07;21.00;99.90
33837;DHT22;20140;49.356;8.812;2023-07-20T08:40:43;21.10;99.90
33837;DHT22;20140;49.356;8.812;2023-07-20T08:43:10;21.40;99.90
33837;DHT22;20140;49.356;8.812;2023-07-20T08:45:38;21.60;99.90
33837;DHT22;20140;49.356;8.812;2023-07-20T08:48:06;21.60;99.90
33837;DHT22;20140;49.356;8.812;2023-07-20T08:50:32;21.50;99.90
33837;DHT22;20140;49.356;8.812;2023-07-20T08:52:59;21.50;99.90
33837;DHT22;20140;49.356;8.812;2023-07-20T08:55:28;21.50;99.90
33837;DHT22;20140;49.356;8.812;2023-07-20T08:57:55;21.50;99.90
33837;DHT22;20140;49.356;8.812;2023-07-20T09:00:22;21.50;99.90
33837;DHT22;20140;49.356;8.812;2023-07-20T09:02:52;21.70;99.90
33837;DHT22;20140;49.356;8.812;2023-07-20T09:05:19;21.80;99.90
33837;DHT22;20140;49.356;8.812;2023-07-20T09:07:45;21.90;99.90
33837;DHT22;20140;49.356;8.812;2023-07-20T09:10:11;22.20;99.90
33837;DHT22;20140;49.356;8.812;2023-07-20T09:12:38;22.10;99.90
33837;DHT22;20140;49.356;8.812;2023-07-20T09:15:05;22.00;99.90
33837;DHT22;20140;49.356;8.812;2023-07-20T09:17:31;21.90;99.90
33837;DHT22;20140;49.356;8.812;2023-07-20T09:19:57;22.00;99.90
33837;DHT22;20140;49.356;8.812;2023-07-20T09:22:30;22.30;99.90
33837;DHT22;20140;49.356;8.812;2023-07-20T09:24:56;22.40;99.90
33837;DHT22;20140;49.356;8.812;2023-07-20T09:27:21;22.40;99.90
33837;DHT22;20140;49.356;8.812;2023-07-20T09:29:51;22.20;99.90
33837;DHT22;20140;49.356;8.812;2023-07-20T09:32:20;21.70;99.90
33837;DHT22;20140;49.356;8.812;2023-07-20T09:34:46;21.90;99.90
33837;DHT22;20140;49.356;8.812;2023-07-20T09:37:12;22.10;99.90
33837;DHT22;20140;49.356;8.812;2023-07-20T09:39:45;21.70;99.90
33837;DHT22;20140;49.356;8.812;2023-07-20T09:42:12;21.80;99.90
33837;DHT22;20140;49.356;8.812;2023-07-20T09:44:45;21.90;99.90
33837;DHT22;20140;49.356;8.812;2023-07-20T09:47:11;22.20;99.90
33837;DHT22;20140;49.356;8.812;2023-07-20T09:49:39;22.50;99.90
33837;DHT22;20140;49.356;8.812;2023-07-20T09:52:07;22.50;99.90
33837;DHT22;20140;49.356;8.812;2023-07-20T09:54:33;22.40;99.90
33837;DHT22;20140;49.356;8.812;2023-07-20T09:57:00;22.50;99.90
33837;DHT22;20140;49.356;8.812;2023-07-20T09:59:28;22.50;99.90
33837;DHT22;20140;49.356;8.812;2023-07-20T10:01:57;22.70;99.90
33837;DHT22;20140;49.356;8.812;2023-07-20T10:04:23;22.60;98.50
33837;DHT22;20140;49.356;8.812;2023-07-20T10:06:51;22.30;99.20
33837;DHT22;20140;49.356;8.812;2023-07-20T10:09:18;22.70;99.60
33837;DHT22;20140;49.356;8.812;2023-07-20T10:11:50;23.10;98.50
33837;DHT22;20140;49.356;8.812;2023-07-20T10:14:20;23.30;96.90
33837;DHT22;20140;49.356;8.812;2023-07-20T10:16:54;23.40;97.80
33837;DHT22;20140;49.356;8.812;2023-07-20T10:19:34;23.60;97.60
33837;DHT22;20140;49.356;8.812;2023-07-20T10:22:14;23.40;97.00
33837;DHT22;20140;49.356;8.812;2023-07-20T10:24:46;23.40;96.70
33837;DHT22;20140;49.356;8.812;2023-07-20T10:27:13;23.30;96.90
33837;DHT22;20140;49.356;8.812;2023-07-20T10:29:40;23.20;96.40
33837;DHT22;20140;49.356;8.812;2023-07-20T10:32:07;23.30;96.30
33837;DHT22;20140;49.356;8.812;2023-07-20T10:34:33;23.30;96.70
33837;DHT22;20140;49.356;8.812;2023-07-20T10:36:59;23.30;95.20
33837;DHT22;20140;49.356;8.812;2023-07-20T10:39:26;23.20;94.90
33837;DHT22;20140;49.356;8.812;2023-07-20T10:42:07;23.60;94.70
33837;DHT22;20140;49.356;8.812;2023-07-20T10:44:33;23.70;94.40
33837;DHT22;20140;49.356;8.812;2023-07-20T10:47:01;23.90;94.30
33837;DHT22;20140;49.356;8.812;2023-07-20T10:49:26;23.80;94.00
33837;DHT22;20140;49.356;8.812;2023-07-20T10:51:58;24.00;94.90
33837;DHT22;20140;49.356;8.812;2023-07-20T10:56:54;24.30;92.40
33837;DHT22;20140;49.356;8.812;2023-07-20T10:59:36;24.30;92.50
33837;DHT22;20140;49.356;8.812;2023-07-20T11:02:08;24.40;92.70
33837;DHT22;20140;49.356;8.812;2023-07-20T11:04:45;24.40;92.10
33837;DHT22;20140;49.356;8.812;2023-07-20T11:07:15;24.30;91.40
33837;DHT22;20140;49.356;8.812;2023-07-20T11:09:41;24.60;91.90
33837;DHT22;20140;49.356;8.812;2023-07-20T11:12:15;24.90;91.40
33837;DHT22;20140;49.356;8.812;2023-07-20T11:14:42;25.00;90.70
33837;DHT22;20140;49.356;8.812;2023-07-20T11:17:15;24.60;87.80
33837;DHT22;20140;49.356;8.812;2023-07-20T11:19:41;24.40;86.80
33837;DHT22;20140;49.356;8.812;2023-07-20T11:22:07;24.30;90.00
33837;DHT22;20140;49.356;8.812;2023-07-20T11:24:34;24.30;92.00
33837;DHT22;20140;49.356;8.812;2023-07-20T11:27:00;24.50;91.70
33837;DHT22;20140;49.356;8.812;2023-07-20T11:29:29;24.80;89.80
33837;DHT22;20140;49.356;8.812;2023-07-20T11:31:56;25.10;89.10
33837;DHT22;20140;49.356;8.812;2023-07-20T11:34:22;25.20;90.10
33837;DHT22;20140;49.356;8.812;2023-07-20T11:36:50;25.20;88.60
33837;DHT22;20140;49.356;8.812;2023-07-20T11:39:21;25.20;89.50
33837;DHT22;20140;49.356;8.812;2023-07-20T11:41:48;24.80;88.70
33837;DHT22;20140;49.356;8.812;2023-07-20T11:44:19;24.20;90.30
33837;DHT22;20140;49.356;8.812;2023-07-20T11:46:45;24.00;90.30
33837;DHT22;20140;49.356;8.812;2023-07-20T11:49:11;24.60;89.10
33837;DHT22;20140;49.356;8.812;2023-07-20T11:51:38;24.70;88.20
33837;DHT22;20140;49.356;8.812;2023-07-20T11:54:06;24.60;86.70
33837;DHT22;20140;49.356;8.812;2023-07-20T11:56:32;25.20;86.00
33837;DHT22;20140;49.356;8.812;2023-07-20T11:58:58;24.70;85.20
33837;DHT22;20140;49.356;8.812;2023-07-20T12:01:29;25.00;85.50
33837;DHT22;20140;49.356;8.812;2023-07-20T12:03:58;25.50;83.20
33837;DHT22;20140;49.356;8.812;2023-07-20T12:06:24;25.90;81.30
33837;DHT22;20140;49.356;8.812;2023-07-20T12:08:51;25.80;82.30
33837;DHT22;20140;49.356;8.812;2023-07-20T12:11:32;25.40;83.50
33837;DHT22;20140;49.356;8.812;2023-07-20T12:13:58;24.70;86.30
33837;DHT22;20140;49.356;8.812;2023-07-20T12:16:27;25.00;86.70
33837;DHT22;20140;49.356;8.812;2023-07-20T12:19:03;24.80;85.90
33837;DHT22;20140;49.356;8.812;2023-07-20T12:21:29;24.50;83.60
33837;DHT22;20140;49.356;8.812;2023-07-20T12:23:56;24.90;84.10
33837;DHT22;20140;49.356;8.812;2023-07-20T12:26:23;25.40;83.90
33837;DHT22;20140;49.356;8.812;2023-07-20T12:28:49;25.70;82.80
33837;DHT22;20140;49.356;8.812;2023-07-20T12:31:15;25.40;81.80
33837;DHT22;20140;49.356;8.812;2023-07-20T12:33:41;25.00;83.30
33837;DHT22;20140;49.356;8.812;2023-07-20T12:36:08;24.50;85.30
33837;DHT22;20140;49.356;8.812;2023-07-20T12:38:33;24.80;87.10
33837;DHT22;20140;49.356;8.812;2023-07-20T12:41:01;25.50;85.40
33837;DHT22;20140;49.356;8.812;2023-07-20T12:43:27;25.70;83.40
33837;DHT22;20140;49.356;8.812;2023-07-20T12:45:52;26.30;82.50
33837;DHT22;20140;49.356;8.812;2023-07-20T12:48:18;25.60;82.50
33837;DHT22;20140;49.356;8.812;2023-07-20T12:50:44;25.80;82.50
33837;DHT22;20140;49.356;8.812;2023-07-20T12:53:09;25.50;81.20
33837;DHT22;20140;49.356;8.812;2023-07-20T12:55:35;25.50;82.10
33837;DHT22;20140;49.356;8.812;2023-07-20T12:58:00;26.10;80.40
33837;DHT22;20140;49.356;8.812;2023-07-20T13:00:26;25.40;79.90
33837;DHT22;20140;49.356;8.812;2023-07-20T13:02:51;25.60;81.30
33837;DHT22;20140;49.356;8.812;2023-07-20T13:05:17;26.10;82.50
33837;DHT22;20140;49.356;8.812;2023-07-20T13:07:43;26.10;78.10
33837;DHT22;20140;49.356;8.812;2023-07-20T13:10:10;26.20;79.50
33837;DHT22;20140;49.356;8.812;2023-07-20T13:12:37;26.50;76.60
33837;DHT22;20140;49.356;8.812;2023-07-20T13:15:04;26.70;76.60
33837;DHT22;20140;49.356;8.812;2023-07-20T13:17:34;26.60;74.60
33837;DHT22;20140;49.356;8.812;2023-07-20T13:20:00;26.90;75.10
33837;DHT22;20140;49.356;8.812;2023-07-20T13:22:26;27.30;70.80
33837;DHT22;20140;49.356;8.812;2023-07-20T13:24:53;27.90;68.30
33837;DHT22;20140;49.356;8.812;2023-07-20T13:27:19;26.60;70.00
33837;DHT22;20140;49.356;8.812;2023-07-20T13:29:44;26.80;69.70
33837;DHT22;20140;49.356;8.812;2023-07-20T13:32:13;27.20;69.20
33837;DHT22;20140;49.356;8.812;2023-07-20T13:34:40;27.20;69.30
33837;DHT22;20140;49.356;8.812;2023-07-20T13:37:05;27.70;70.00
33837;DHT22;20140;49.356;8.812;2023-07-20T13:39:31;27.40;68.90
33837;DHT22;20140;49.356;8.812;2023-07-20T13:41:57;27.30;68.30
33837;DHT22;20140;49.356;8.812;2023-07-20T13:44:22;27.20;66.30
33837;DHT22;20140;49.356;8.812;2023-07-20T13:46:48;26.70;67.90
33837;DHT22;20140;49.356;8.812;2023-07-20T13:49:14;26.70;67.60
33837;DHT22;20140;49.356;8.812;2023-07-20T13:51:41;26.30;66.40
33837;DHT22;20140;49.356;8.812;2023-07-20T13:54:08;26.30;66.20
33837;DHT22;20140;49.356;8.812;2023-07-20T13:56:34;26.20;68.10
33837;DHT22;20140;49.356;8.812;2023-07-20T13:58:59;25.60;68.30
33837;DHT22;20140;49.356;8.812;2023-07-20T14:01:25;25.70;68.80
33837;DHT22;20140;49.356;8.812;2023-07-20T14:03:51;25.70;68.60
33837;DHT22;20140;49.356;8.812;2023-07-20T14:06:16;25.30;68.90
33837;DHT22;20140;49.356;8.812;2023-07-20T14:08:43;25.10;69.10
33837;DHT22;20140;49.356;8.812;2023-07-20T14:11:12;25.10;70.60
33837;DHT22;20140;49.356;8.812;2023-07-20T14:13:37;25.30;69.10
33837;DHT22;20140;49.356;8.812;2023-07-20T14:16:03;25.70;68.60
33837;DHT22;20140;49.356;8.812;2023-07-20T14:18:29;25.90;69.00
33837;DHT22;20140;49.356;8.812;2023-07-20T14:20:54;26.00;68.90
33837;DHT22;20140;49.356;8.812;2023-07-20T14:23:20;25.80;71.40
33837;DHT22;20140;49.356;8.812;2023-07-20T14:25:45;25.50;70.80
33837;DHT22;20140;49.356;8.812;2023-07-20T14:28:11;25.50;71.20
33837;DHT22;20140;49.356;8.812;2023-07-20T14:30:37;25.60;70.60
33837;DHT22;20140;49.356;8.812;2023-07-20T14:33:02;25.30;70.30
33837;DHT22;20140;49.356;8.812;2023-07-20T14:35:28;25.20;70.30
33837;DHT22;20140;49.356;8.812;2023-07-20T14:37:53;25.40;71.60
33837;DHT22;20140;49.356;8.812;2023-07-20T14:40:19;25.80;72.80
33837;DHT22;20140;49.356;8.812;2023-07-20T14:42:44;26.10;71.40
33837;DHT22;20140;49.356;8.812;2023-07-20T14:45:10;26.10;69.30
33837;DHT22;20140;49.356;8.812;2023-07-20T14:47:36;25.80;69.20
33837;DHT22;20140;49.356;8.812;2023-07-20T14:50:02;26.10;69.70
33837;DHT22;20140;49.356;8.812;2023-07-20T14:52:28;26.20;69.70
33837;DHT22;20140;49.356;8.812;2023-07-20T14:54:54;26.60;68.60
33837;DHT22;20140;49.356;8.812;2023-07-20T14:57:20;26.10;68.60
33837;DHT22;20140;49.356;8.812;2023-07-20T14:59:51;25.90;70.40
33837;DHT22;20140;49.356;8.812;2023-07-20T15:02:18;25.80;70.50
33837;DHT22;20140;49.356;8.812;2023-07-20T15:04:48;26.30;73.80
33837;DHT22;20140;49.356;8.812;2023-07-20T15:07:15;27.20;69.50
33837;DHT22;20140;49.356;8.812;2023-07-20T15:09:41;28.60;66.80
33837;DHT22;20140;49.356;8.812;2023-07-20T15:12:07;29.40;62.00
33837;DHT22;20140;49.356;8.812;2023-07-20T15:14:33;29.20;62.80
33837;DHT22;20140;49.356;8.812;2023-07-20T15:16:58;27.90;62.70
33837;DHT22;20140;49.356;8.812;2023-07-20T15:19:24;27.80;60.70
33837;DHT22;20140;49.356;8.812;2023-07-20T15:21:49;27.20;64.20
33837;DHT22;20140;49.356;8.812;2023-07-20T15:24:15;26.80;63.60
33837;DHT22;20140;49.356;8.812;2023-07-20T15:26:40;26.80;64.40
33837;DHT22;20140;49.356;8.812;2023-07-20T15:29:06;26.90;63.40
33837;DHT22;20140;49.356;8.812;2023-07-20T15:31:32;26.80;63.90
33837;DHT22;20140;49.356;8.812;2023-07-20T15:33:57;26.90;64.50